Time;durP1;ratioP1;P1;durP2;ratioP2;P2;SDS_P1;SDS_P2;PMS_P1;PMS_P2;Temp;Humidity;BMP_temperature;BMP_pressure;BME280_temperature;BME280_humidity;BME280_pressure;Samples;Min_cycle;Max_cycle;Signal;HPM_P1;HPM_P2
2022/06/11 00:01:08;;;;;;;1.65;1.00;;;22.60;56.50;;;;;;5078594;28;20028;-53
2022/06/11 00:03:33;;;;;;;1.70;1.00;;;22.60;56.50;;;;;;5078599;28;20012;-49
2022/06/11 00:06:00;;;;;;;2.67;1.25;;;22.60;56.60;;;;;;5077894;28;20044;-50
2022/06/11 00:08:25;;;;;;;2.85;0.95;;;22.60;56.50;;;;;;5078369;28;20017;-54
2022/06/11 00:10:54;;;;;;;2.05;1.00;;;22.60;56.50;;;;;;5060320;28;20403;-52
2022/06/11 00:13:22;;;;;;;1.50;0.95;;;22.60;56.50;;;;;;5060350;28;20044;-51
2022/06/11 00:15:52;;;;;;;1.20;1.00;;;22.60;56.50;;;;;;5077737;28;20021;-51
2022/06/11 00:18:19;;;;;;;2.65;1.20;;;22.60;56.50;;;;;;5077144;28;20008;-51
2022/06/11 00:20:44;;;;;;;1.55;0.85;;;22.60;56.60;;;;;;5076983;28;20499;-51
2022/06/11 00:23:11;;;;;;;2.17;1.20;;;22.60;56.60;;;;;;5093803;28;20123;-52
2022/06/11 00:25:36;;;;;;;1.20;0.90;;;22.60;56.60;;;;;;5097183;28;20032;-52
2022/06/11 00:28:03;;;;;;;1.45;1.10;;;22.60;56.50;;;;;;5062653;28;20019;-56
2022/06/11 00:30:29;;;;;;;0.95;0.70;;;22.60;56.60;;;;;;5096693;28;20004;-57
2022/06/11 00:32:57;;;;;;;3.55;0.90;;;22.50;56.50;;;;;;5096438;28;20443;-52
2022/06/11 00:35:24;;;;;;;1.33;1.00;;;22.60;56.50;;;;;;5096076;28;20016;-53
2022/06/11 00:37:50;;;;;;;1.85;0.82;;;22.60;56.60;;;;;;5078487;28;20090;-54
2022/06/11 00:40:17;;;;;;;1.83;1.10;;;22.60;56.60;;;;;;5097206;28;20020;-54
2022/06/11 00:42:43;;;;;;;3.03;1.00;;;22.60;56.70;;;;;;5097485;28;20019;-53
2022/06/11 00:45:29;;;;;;;2.00;1.02;;;22.60;56.70;;;;;;5097682;28;20467;-49
2022/06/11 00:48:14;;;;;;;2.55;1.10;;;22.60;56.70;;;;;;5097592;28;20044;-56
2022/06/11 00:51:04;;;;;;;1.75;1.00;;;22.60;56.60;;;;;;5095885;28;20093;-53
2022/06/11 00:53:41;;;;;;;2.00;0.93;;;22.60;56.60;;;;;;5098004;28;20077;-54
2022/06/11 00:56:11;;;;;;;1.25;0.80;;;22.60;56.60;;;;;;5079057;28;20012;-49
2022/06/11 00:58:38;;;;;;;1.17;0.83;;;22.60;56.50;;;;;;5061934;28;20016;-54
2022/06/11 01:01:04;;;;;;;1.77;0.80;;;22.60;56.50;;;;;;5078414;28;20788;-53
2022/06/11 01:03:36;;;;;;;1.75;0.80;;;22.60;56.50;;;;;;5096307;28;20020;-55
2022/06/11 01:06:24;;;;;;;2.83;1.10;;;22.60;56.60;;;;;;5095786;28;20027;-51
2022/06/11 01:09:01;;;;;;;2.05;1.00;;;22.60;56.60;;;;;;5077402;28;20368;-53
2022/06/11 01:11:33;;;;;;;1.42;0.90;;;22.50;56.60;;;;;;5095807;28;20390;-49
2022/06/11 01:14:26;;;;;;;1.60;1.10;;;22.60;56.60;;;;;;5095959;28;20043;-51
2022/06/11 01:17:01;;;;;;;1.92;0.90;;;22.60;56.60;;;;;;5083165;28;20028;-54
2022/06/11 01:19:35;;;;;;;0.95;0.70;;;22.60;56.50;;;;;;5082679;28;20121;-56
2022/06/11 01:22:19;;;;;;;2.05;1.10;;;22.50;56.50;;;;;;5081670;28;20044;-55
2022/06/11 01:25:07;;;;;;;1.63;0.90;;;22.50;56.50;;;;;;5100071;28;20089;-55
2022/06/11 01:27:39;;;;;;;1.73;1.15;;;22.50;56.50;;;;;;5077795;28;20013;-53
2022/06/11 01:30:20;;;;;;;3.35;0.90;;;22.60;56.50;;;;;;5061997;28;20016;-52
2022/06/11 01:32:54;;;;;;;1.90;1.10;;;22.50;56.40;;;;;;5095552;28;20036;-50
2022/06/11 01:35:37;;;;;;;2.85;1.00;;;22.50;56.40;;;;;;5095545;28;20107;-51
2022/06/11 01:38:07;;;;;;;2.35;1.05;;;22.50;56.40;;;;;;5076791;28;20016;-53
2022/06/11 01:40:45;;;;;;;2.05;1.00;;;22.50;56.40;;;;;;5060650;28;20103;-53
2022/06/11 01:43:21;;;;;;;2.70;0.90;;;22.50;56.40;;;;;;5061618;28;20012;-49
2022/06/11 01:45:48;;;;;;;1.27;0.90;;;22.50;56.40;;;;;;5077793;28;20032;-54
2022/06/11 01:48:19;;;;;;;2.33;1.00;;;22.50;56.30;;;;;;5095094;28;20016;-52
2022/06/11 01:50:52;;;;;;;1.48;0.80;;;22.50;56.30;;;;;;5094729;28;20008;-54
2022/06/11 01:53:47;;;;;;;1.48;0.93;;;22.50;56.20;;;;;;5077370;28;20009;-55
2022/06/11 01:56:32;;;;;;;1.20;0.98;;;22.50;56.20;;;;;;5094909;28;20012;-51
2022/06/11 01:59:00;;;;;;;2.88;1.02;;;22.50;56.20;;;;;;5095232;28;20097;-53
2022/06/11 02:01:53;;;;;;;1.30;0.90;;;22.50;56.10;;;;;;5095230;28;20105;-57
2022/06/11 02:04:28;;;;;;;1.70;1.00;;;22.50;56.10;;;;;;5094960;28;20073;-55
2022/06/11 02:06:56;;;;;;;2.03;1.00;;;22.50;56.10;;;;;;5095468;28;20015;-53
2022/06/11 02:09:31;;;;;;;2.15;1.02;;;22.50;56.10;;;;;;5095739;28;20016;-53
2022/06/11 02:12:10;;;;;;;1.42;0.90;;;22.40;56.00;;;;;;5077744;28;20024;-49
2022/06/11 02:14:45;;;;;;;2.33;1.00;;;22.50;56.00;;;;;;5077448;28;20019;-55
2022/06/11 02:17:33;;;;;;;3.20;1.30;;;22.50;56.00;;;;;;5061185;28;20073;-54
2022/06/11 02:20:19;;;;;;;1.83;0.85;;;22.50;56.00;;;;;;5078006;28;20020;-53
2022/06/11 02:22:48;;;;;;;1.30;0.70;;;22.50;56.00;;;;;;5078575;28;20044;-52
2022/06/11 02:25:18;;;;;;;2.97;1.17;;;22.50;56.00;;;;;;5096502;28;20028;-55
2022/06/11 02:27:49;;;;;;;1.75;0.90;;;22.50;55.90;;;;;;5096267;28;20047;-53
2022/06/11 02:30:20;;;;;;;3.13;1.10;;;22.50;55.90;;;;;;5095836;28;20031;-54
2022/06/11 02:32:46;;;;;;;3.50;0.90;;;22.50;56.00;;;;;;5095871;28;20047;-57
2022/06/11 02:35:13;;;;;;;2.25;1.00;;;22.50;55.90;;;;;;5095402;28;20016;-56
2022/06/11 02:37:42;;;;;;;1.67;0.90;;;22.50;55.80;;;;;;5095745;28;20015;-55
2022/06/11 02:40:15;;;;;;;2.75;1.10;;;22.40;55.70;;;;;;5095052;28;20103;-57
2022/06/11 02:42:41;;;;;;;3.08;1.20;;;22.40;55.80;;;;;;5095064;28;20072;-54
2022/06/11 02:45:10;;;;;;;2.15;1.02;;;22.50;55.80;;;;;;5095470;28;20103;-56
2022/06/11 02:47:36;;;;;;;2.22;1.00;;;22.40;55.70;;;;;;5096225;28;20012;-57
2022/06/11 02:50:03;;;;;;;1.58;0.85;;;22.40;55.70;;;;;;5096689;28;20012;-57
2022/06/11 02:52:29;;;;;;;2.38;1.10;;;22.40;55.70;;;;;;5096973;28;20038;-56
2022/06/11 02:54:55;;;;;;;2.28;1.00;;;22.40;55.70;;;;;;5079151;28;20467;-55
2022/06/11 02:57:25;;;;;;;2.28;1.00;;;22.40;55.70;;;;;;5097958;28;20024;-57
2022/06/11 02:59:51;;;;;;;2.30;0.80;;;22.40;55.60;;;;;;5101239;28;20020;-57
2022/06/11 03:02:18;;;;;;;3.28;1.17;;;22.40;55.60;;;;;;5100960;28;20024;-56
2022/06/11 03:04:44;;;;;;;2.53;1.00;;;22.40;55.60;;;;;;5101684;28;20095;-57
2022/06/11 03:07:11;;;;;;;2.72;1.10;;;22.40;55.60;;;;;;5100679;28;20017;-57
2022/06/11 03:09:37;;;;;;;2.15;1.00;;;22.40;55.50;;;;;;5101187;28;20012;-57
2022/06/11 03:12:04;;;;;;;2.53;1.08;;;22.40;55.60;;;;;;5100911;28;20461;-57
2022/06/11 03:14:30;;;;;;;2.40;0.90;;;22.40;55.50;;;;;;5082696;28;20465;-56
2022/06/11 03:16:56;;;;;;;2.50;0.90;;;22.40;55.50;;;;;;5100270;28;20012;-57
2022/06/11 03:19:22;;;;;;;1.60;0.93;;;22.40;56.00;;;;;;5082720;28;20020;-56
2022/06/11 03:21:49;;;;;;;2.20;1.02;;;22.40;55.50;;;;;;5095014;28;20131;-57
2022/06/11 03:24:15;;;;;;;2.70;1.00;;;22.40;55.50;;;;;;5079908;28;20078;-57
2022/06/11 03:26:41;;;;;;;2.50;0.93;;;22.40;55.50;;;;;;5045651;28;20029;-56
2022/06/11 03:29:08;;;;;;;1.80;1.05;;;22.40;55.30;;;;;;5080883;28;20039;-56
2022/06/11 03:31:34;;;;;;;2.00;0.82;;;22.40;55.30;;;;;;5079607;28;20009;-55
2022/06/11 03:34:00;;;;;;;1.73;0.80;;;22.40;55.30;;;;;;5080182;28;20021;-56
2022/06/11 03:36:26;;;;;;;1.75;0.98;;;22.40;55.30;;;;;;5061972;28;20016;-56
2022/06/11 03:38:53;;;;;;;3.10;1.08;;;22.40;55.20;;;;;;5061784;28;20028;-55
2022/06/11 03:41:20;;;;;;;3.40;1.20;;;22.40;55.30;;;;;;5079815;28;20012;-58
2022/06/11 03:43:48;;;;;;;3.05;1.20;;;22.40;55.20;;;;;;5079633;28;20019;-56
2022/06/11 03:46:14;;;;;;;2.00;0.95;;;22.40;55.20;;;;;;5079173;28;20054;-56
2022/06/11 03:48:40;;;;;;;1.88;0.85;;;22.30;55.10;;;;;;5061283;28;20539;-57
2022/06/11 03:51:06;;;;;;;2.97;1.05;;;22.40;55.20;;;;;;5078925;28;20537;-56
2022/06/11 03:53:32;;;;;;;2.80;1.08;;;22.40;55.10;;;;;;5061199;28;20104;-56
2022/06/11 03:55:58;;;;;;;1.85;1.02;;;22.40;55.10;;;;;;5078018;28;20513;-57
2022/06/11 03:58:24;;;;;;;2.75;1.27;;;22.40;55.10;;;;;;5078528;28;20023;-57
2022/06/11 04:03:35;;;;;;;2.70;1.30;;;22.40;55.00;;;;;;5062062;28;20502;-55
2022/06/11 04:06:01;;;;;;;1.88;1.02;;;22.40;55.00;;;;;;5078322;28;20028;-58
2022/06/11 04:08:27;;;;;;;2.95;1.10;;;22.40;55.00;;;;;;5078013;28;20013;-58
2022/06/11 04:10:54;;;;;;;3.60;0.85;;;22.40;55.00;;;;;;5076802;28;20061;-59
2022/06/11 04:13:21;;;;;;;1.52;0.90;;;22.30;54.90;;;;;;5077569;28;20016;-57
2022/06/11 04:15:46;;;;;;;3.58;1.38;;;22.40;55.00;;;;;;5077722;28;20044;-57
2022/06/11 04:18:24;;;;;;;1.92;0.88;;;22.40;54.90;;;;;;5060959;28;20475;-58
2022/06/11 04:20:50;;;;;;;1.77;0.85;;;22.40;54.90;;;;;;5077586;28;20039;-58
2022/06/11 04:23:17;;;;;;;1.75;0.98;;;22.40;54.80;;;;;;5077659;28;20052;-58
2022/06/11 04:25:45;;;;;;;2.30;0.93;;;22.30;54.70;;;;;;5077065;28;20133;-58
2022/06/11 04:28:11;;;;;;;2.67;1.00;;;22.40;54.70;;;;;;5076811;28;20091;-58
2022/06/11 04:30:38;;;;;;;3.90;1.20;;;22.40;54.60;;;;;;5077533;28;20008;-58
2022/06/11 04:33:04;;;;;;;3.22;1.27;;;22.30;54.60;;;;;;5060415;28;20012;-59
2022/06/11 04:35:31;;;;;;;3.40;1.17;;;22.40;54.50;;;;;;5078154;28;20016;-58
2022/06/11 04:37:58;;;;;;;1.65;0.90;;;22.30;55.10;;;;;;5077840;28;20070;-58
2022/06/11 04:40:25;;;;;;;2.45;1.00;;;22.30;54.50;;;;;;5078105;28;20028;-57
2022/06/11 04:42:51;;;;;;;1.90;0.90;;;22.30;54.40;;;;;;5076695;28;20044;-58
2022/06/11 04:45:18;;;;;;;3.17;1.33;;;22.40;54.50;;;;;;5077979;28;20047;-58
2022/06/11 04:47:44;;;;;;;3.97;1.20;;;22.40;54.40;;;;;;5077957;28;20016;-59
2022/06/11 04:50:12;;;;;;;3.38;1.23;;;22.30;54.40;;;;;;5077710;28;20032;-55
2022/06/11 04:52:37;;;;;;;2.55;0.90;;;22.40;54.30;;;;;;5026350;28;20020;-58
2022/06/11 04:55:04;;;;;;;3.08;1.08;;;22.30;54.20;;;;;;5059875;28;20467;-59
2022/06/11 04:57:30;;;;;;;3.92;1.15;;;22.30;54.10;;;;;;5076208;28;20048;-59
2022/06/11 04:59:56;;;;;;;1.38;0.75;;;22.40;54.10;;;;;;5077514;28;20095;-59
2022/06/11 05:02:22;;;;;;;3.72;1.33;;;22.40;54.20;;;;;;5059762;28;20050;-58
2022/06/11 05:04:48;;;;;;;2.70;1.05;;;22.40;54.20;;;;;;5076986;28;20023;-56
2022/06/11 05:07:14;;;;;;;2.95;0.98;;;22.40;54.10;;;;;;5076996;28;20524;-56
2022/06/11 05:09:41;;;;;;;2.40;1.10;;;22.30;54.00;;;;;;5076493;28;20013;-55
2022/06/11 05:12:07;;;;;;;2.83;1.52;;;22.40;53.80;;;;;;5059162;28;20070;-54
2022/06/11 05:14:33;;;;;;;2.58;1.15;;;22.40;54.00;;;;;;5076924;28;20017;-58
2022/06/11 05:16:59;;;;;;;2.95;1.25;;;22.40;54.00;;;;;;5077652;28;20027;-56
2022/06/11 05:19:26;;;;;;;2.95;1.10;;;22.40;53.80;;;;;;5076962;28;20028;-58
2022/06/11 05:21:52;;;;;;;2.85;1.08;;;22.40;54.00;;;;;;5076641;28;20052;-56
2022/06/11 05:24:19;;;;;;;2.55;0.98;;;22.40;53.70;;;;;;5059502;28;20182;-58
2022/06/11 05:26:53;;;;;;;2.67;1.40;;;22.40;53.50;;;;;;5076671;28;20050;-57
2022/06/11 05:29:24;;;;;;;4.05;1.42;;;22.40;53.70;;;;;;5060463;28;20094;-57
2022/06/11 05:31:50;;;;;;;3.78;1.40;;;22.40;53.40;;;;;;5076802;28;20084;-53
2022/06/11 05:34:16;;;;;;;2.90;1.00;;;22.40;53.40;;;;;;5076645;28;20033;-54
2022/06/11 05:36:42;;;;;;;3.40;1.27;;;22.40;53.30;;;;;;5076950;28;20042;-56
2022/06/11 05:39:09;;;;;;;4.15;1.50;;;22.40;53.40;;;;;;5077663;28;20088;-56
2022/06/11 05:41:35;;;;;;;3.22;1.13;;;22.40;53.30;;;;;;5077181;28;20016;-54
2022/06/11 05:44:01;;;;;;;3.10;1.02;;;22.40;53.30;;;;;;5076867;28;20036;-54
2022/06/11 05:46:27;;;;;;;3.70;1.50;;;22.40;53.20;;;;;;5059719;28;20414;-55
2022/06/11 05:48:58;;;;;;;4.50;1.60;;;22.40;53.20;;;;;;5043008;28;20088;-56
2022/06/11 05:51:30;;;;;;;2.85;1.20;;;22.40;53.20;;;;;;5076515;28;20005;-57
2022/06/11 05:53:56;;;;;;;2.90;1.15;;;22.40;53.00;;;;;;5059036;28;20096;-55
2022/06/11 05:56:22;;;;;;;2.47;1.10;;;22.40;53.10;;;;;;5076056;28;20408;-54
2022/06/11 05:58:54;;;;;;;7.93;1.60;;;22.40;53.10;;;;;;5075879;28;20107;-52
2022/06/11 06:01:23;;;;;;;3.90;1.60;;;22.40;53.10;;;;;;5075654;28;20030;-54
2022/06/11 06:03:49;;;;;;;4.55;1.48;;;22.40;53.00;;;;;;5075264;28;20021;-57
2022/06/11 06:06:15;;;;;;;3.63;1.20;;;22.40;52.90;;;;;;5075466;28;20099;-54
2022/06/11 06:08:41;;;;;;;7.28;1.65;;;22.40;52.90;;;;;;5057413;28;20028;-56
2022/06/11 06:11:07;;;;;;;3.88;1.58;;;22.40;52.70;;;;;;5057395;28;20028;-53
2022/06/11 06:13:45;;;;;;;6.95;1.58;;;22.50;52.60;;;;;;5075333;28;20047;-56
2022/06/11 06:16:11;;;;;;;4.28;1.60;;;22.40;52.50;;;;;;5075598;28;20104;-56
2022/06/11 06:18:37;;;;;;;6.78;2.05;;;22.50;52.50;;;;;;5075553;28;20063;-55
2022/06/11 06:21:03;;;;;;;6.38;1.67;;;22.40;52.50;;;;;;5058433;28;20028;-58
2022/06/11 06:23:31;;;;;;;4.15;1.30;;;22.40;52.40;;;;;;5114453;28;20052;-53
2022/06/11 06:25:57;;;;;;;5.65;1.90;;;22.40;52.50;;;;;;5117604;28;20024;-55
2022/06/11 06:28:23;;;;;;;5.00;1.92;;;22.50;52.50;;;;;;5117290;28;20023;-56
2022/06/11 06:30:49;;;;;;;6.10;1.70;;;22.50;52.50;;;;;;5117829;28;20035;-56
2022/06/11 06:33:15;;;;;;;4.40;1.35;;;22.40;52.40;;;;;;5098926;28;20605;-57
2022/06/11 06:35:42;;;;;;;4.07;1.63;;;22.40;52.30;;;;;;5117029;28;20022;-57
2022/06/11 06:38:07;;;;;;;4.70;1.60;;;22.50;52.30;;;;;;5118060;28;20024;-56
2022/06/11 06:40:33;;;;;;;4.65;1.90;;;22.50;52.30;;;;;;5118576;28;20530;-57
2022/06/11 06:42:59;;;;;;;4.55;1.55;;;22.40;52.20;;;;;;5119458;28;20022;-57
2022/06/11 06:45:26;;;;;;;5.25;1.45;;;22.50;52.20;;;;;;5119921;28;20024;-55
2022/06/11 06:47:52;;;;;;;4.90;1.55;;;22.50;52.00;;;;;;5119895;28;20026;-56
2022/06/11 06:50:17;;;;;;;5.70;1.80;;;22.50;52.00;;;;;;5118629;28;20402;-52
2022/06/11 06:52:43;;;;;;;6.43;1.75;;;22.50;52.00;;;;;;5118757;28;20475;-56
2022/06/11 06:55:09;;;;;;;6.53;1.88;;;22.50;52.50;;;;;;5119446;28;20075;-55
2022/06/11 06:57:35;;;;;;;5.18;1.88;;;22.50;52.00;;;;;;5118306;28;20016;-57
2022/06/11 07:00:02;;;;;;;5.13;1.88;;;22.50;51.90;;;;;;5119421;28;20390;-53
2022/06/11 07:02:28;;;;;;;6.97;2.17;;;22.50;51.90;;;;;;5118970;28;20107;-57
2022/06/11 07:04:54;;;;;;;6.72;1.90;;;22.50;51.80;;;;;;5119478;28;20113;-57
2022/06/11 07:07:20;;;;;;;4.25;1.70;;;22.50;51.80;;;;;;5102447;28;20043;-57
2022/06/11 07:09:54;;;;;;;5.07;1.92;;;22.50;51.80;;;;;;5120133;28;20478;-52
2022/06/11 07:12:20;;;;;;;5.28;1.80;;;22.50;51.80;;;;;;5101476;28;20073;-55
2022/06/11 07:14:47;;;;;;;5.03;1.80;;;22.50;51.70;;;;;;5119812;28;20078;-55
2022/06/11 07:17:13;;;;;;;7.80;2.22;;;22.50;51.70;;;;;;5101089;28;20023;-56
2022/06/11 07:19:41;;;;;;;7.28;1.90;;;22.50;51.70;;;;;;5102033;28;20020;-55
2022/06/11 07:22:10;;;;;;;6.40;2.05;;;22.50;51.70;;;;;;5102952;28;20059;-54
2022/06/11 07:24:37;;;;;;;7.10;2.05;;;22.50;51.60;;;;;;5120404;28;20024;-55
2022/06/11 07:27:07;;;;;;;10.40;2.65;;;22.50;51.50;;;;;;5121277;28;20057;-54
2022/06/11 07:29:38;;;;;;;6.75;1.83;;;22.50;51.40;;;;;;5103087;28;20012;-56
2022/06/11 07:32:08;;;;;;;6.43;2.15;;;22.50;51.40;;;;;;5121157;28;20063;-57
2022/06/11 07:34:35;;;;;;;9.80;1.88;;;22.50;51.30;;;;;;5101947;28;20031;-53
2022/06/11 07:37:01;;;;;;;6.30;2.05;;;22.50;51.20;;;;;;5102447;28;20027;-54
2022/06/11 07:39:27;;;;;;;7.60;2.50;;;22.60;51.20;;;;;;5120425;28;20020;-53
2022/06/11 07:41:53;;;;;;;6.18;2.08;;;22.60;51.20;;;;;;5119186;28;20011;-54
2022/06/11 07:44:18;;;;;;;5.78;2.33;;;22.60;51.00;;;;;;5121729;28;20102;-56
2022/06/11 07:46:44;;;;;;;6.97;2.25;;;22.60;51.00;;;;;;5122788;28;20473;-57
2022/06/11 07:49:10;;;;;;;5.82;1.80;;;22.60;51.00;;;;;;5123399;28;20027;-54
2022/06/11 07:51:37;;;;;;;8.13;2.72;;;22.60;50.90;;;;;;5105084;28;20462;-50
2022/06/11 07:54:03;;;;;;;7.22;2.47;;;22.60;51.40;;;;;;5124744;28;20008;-56
2022/06/11 07:56:29;;;;;;;7.35;2.20;;;22.60;50.80;;;;;;5125041;28;20057;-55
2022/06/11 07:58:55;;;;;;;6.57;2.47;;;22.60;50.70;;;;;;5105480;28;20016;-54
2022/06/11 08:01:21;;;;;;;9.32;2.30;;;22.60;50.50;;;;;;5124051;28;20390;-51
2022/06/11 08:03:46;;;;;;;5.78;2.13;;;22.70;50.40;;;;;;5123971;28;20020;-55
2022/06/11 08:06:13;;;;;;;8.35;2.30;;;22.70;50.60;;;;;;5122852;28;20031;-56
2022/06/11 08:08:39;;;;;;;6.60;2.15;;;22.70;50.20;;;;;;5088218;28;20089;-56
2022/06/11 08:11:05;;;;;;;9.77;2.15;;;22.60;50.30;;;;;;5123500;28;20067;-57
2022/06/11 08:13:31;;;;;;;8.07;2.05;;;22.70;50.30;;;;;;5122557;28;20046;-55
2022/06/11 08:15:57;;;;;;;6.22;1.83;;;22.70;50.40;;;;;;5122701;28;20035;-53
2022/06/11 08:18:23;;;;;;;7.43;2.20;;;22.70;50.40;;;;;;5122298;28;20020;-57
2022/06/11 08:20:52;;;;;;;7.05;2.53;;;22.70;50.40;;;;;;5122667;28;20032;-55
2022/06/11 08:23:20;;;;;;;7.25;2.20;;;22.70;50.00;;;;;;5122841;28;20122;-53
2022/06/11 08:25:47;;;;;;;6.15;2.00;;;22.70;50.10;;;;;;5122538;28;20089;-54
2022/06/11 08:28:13;;;;;;;6.28;1.95;;;22.70;50.20;;;;;;5104723;28;20478;-51
2022/06/11 08:30:40;;;;;;;7.65;2.30;;;22.70;50.00;;;;;;5122981;28;20125;-56
2022/06/11 08:33:05;;;;;;;9.07;2.63;;;22.70;50.20;;;;;;5105338;28;20038;-54
2022/06/11 08:35:32;;;;;;;8.05;2.30;;;22.60;50.10;;;;;;5123564;28;20470;-51
2022/06/11 08:37:58;;;;;;;7.40;2.42;;;22.70;49.90;;;;;;5122811;28;20028;-54
2022/06/11 08:40:50;;;;;;;7.18;2.00;;;22.60;50.00;;;;;;5122421;28;20015;-48
2022/06/11 08:43:21;;;;;;;7.45;2.20;;;22.70;50.00;;;;;;5121973;28;20069;-55
2022/06/11 08:45:55;;;;;;;5.30;1.90;;;22.70;50.00;;;;;;5123051;28;20026;-55
2022/06/11 08:48:36;;;;;;;6.57;2.13;;;22.60;49.90;;;;;;5123204;28;20019;-53
2022/06/11 08:51:25;;;;;;;5.00;1.85;;;22.70;50.00;;;;;;5104484;28;20099;-55
2022/06/11 08:53:52;;;;;;;6.10;2.72;;;22.70;49.90;;;;;;5105198;28;20011;-53
2022/06/11 08:56:26;;;;;;;8.80;2.47;;;22.70;49.90;;;;;;5122313;28;20081;-54
2022/06/11 08:59:11;;;;;;;9.52;2.50;;;22.70;49.80;;;;;;5104549;28;20046;-52
2022/06/11 09:01:40;;;;;;;6.72;2.10;;;22.70;49.80;;;;;;5121410;28;20084;-49
2022/06/11 09:04:26;;;;;;;7.18;2.40;;;22.70;49.60;;;;;;5103547;28;20024;-51
2022/06/11 09:07:17;;;;;;;8.45;2.92;;;22.70;49.70;;;;;;5105407;28;20023;-55
2022/06/11 09:09:54;;;;;;;7.70;2.30;;;22.70;49.40;;;;;;5120369;28;20024;-53
2022/06/11 09:12:30;;;;;;;7.72;2.28;;;22.70;49.10;;;;;;5120875;28;20067;-48
2022/06/11 09:15:10;;;;;;;7.82;2.30;;;22.70;49.20;;;;;;5120964;28;20015;-55
2022/06/11 09:17:58;;;;;;;7.43;2.60;;;22.70;49.20;;;;;;5120096;28;20367;-53
2022/06/11 09:20:36;;;;;;;12.15;2.50;;;22.70;49.10;;;;;;5120161;28;20032;-55
2022/06/11 09:23:21;;;;;;;8.80;2.25;;;22.70;48.90;;;;;;5119484;28;20524;-53
2022/06/11 09:26:26;;;;;;;8.25;2.35;;;22.70;48.80;;;;;;5101874;28;20024;-53
2022/06/11 09:28:55;;;;;;;6.03;2.03;;;22.70;48.80;;;;;;5105418;28;20153;-53
2022/06/11 09:31:47;;;;;;;9.48;2.70;;;22.70;49.00;;;;;;5102908;28;20026;-57
2022/06/11 09:34:39;;;;;;;7.25;2.28;;;22.70;48.90;;;;;;5102808;28;20090;-53
2022/06/11 09:37:14;;;;;;;8.90;2.60;;;22.70;48.90;;;;;;5102013;28;20038;-55
2022/06/11 09:39:49;;;;;;;8.88;2.53;;;22.70;49.10;;;;;;5122175;28;20016;-53
2022/06/11 09:42:43;;;;;;;7.53;2.38;;;22.70;48.90;;;;;;5105202;28;20078;-54
2022/06/11 09:45:35;;;;;;;7.60;2.50;;;22.80;48.90;;;;;;5122570;28;20030;-54
2022/06/11 09:48:10;;;;;;;8.63;2.65;;;22.70;48.80;;;;;;5109214;28;20036;-55
2022/06/11 09:50:40;;;;;;;7.22;1.98;;;22.70;48.80;;;;;;5122037;28;20012;-57
2022/06/11 09:53:15;;;;;;;8.20;2.30;;;22.80;48.60;;;;;;5103952;28;20377;-56
2022/06/11 09:55:49;;;;;;;8.15;2.55;;;22.80;48.70;;;;;;5119366;28;20473;-54
2022/06/11 09:58:41;;;;;;;8.90;2.30;;;22.80;48.70;;;;;;5118711;28;20071;-51
2022/06/11 10:01:28;;;;;;;9.48;2.25;;;22.80;48.20;;;;;;5079101;28;20040;-51
2022/06/11 10:03:58;;;;;;;7.78;2.53;;;22.80;47.90;;;;;;5117732;28;20097;-53
2022/06/11 10:06:43;;;;;;;6.80;2.43;;;22.90;48.00;;;;;;5099471;28;20027;-54
2022/06/11 10:09:28;;;;;;;9.23;2.58;;;22.90;47.60;;;;;;5119343;28;20250;-57
2022/06/11 10:12:02;;;;;;;7.03;2.38;;;22.90;47.60;;;;;;5106076;28;20012;-56
2022/06/11 10:14:46;;;;;;;5.90;2.28;;;22.90;47.90;;;;;;5101748;28;20090;-56
2022/06/11 10:17:16;;;;;;;6.97;2.20;;;22.90;47.70;;;;;;5121173;28;20015;-55
2022/06/11 10:19:49;;;;;;;7.30;2.38;;;22.90;47.70;;;;;;5121713;28;20024;-55
2022/06/11 10:22:24;;;;;;;5.70;2.03;;;22.90;47.80;;;;;;5121626;28;20111;-57
2022/06/11 10:25:13;;;;;;;8.15;2.20;;;22.90;47.50;;;;;;5102554;28;20016;-55
2022/06/11 10:27:42;;;;;;;7.00;2.33;;;22.90;47.60;;;;;;5120832;28;20049;-54
2022/06/11 10:30:41;;;;;;;7.82;2.88;;;22.90;47.60;;;;;;5120716;28;20030;-55
2022/06/11 10:33:33;;;;;;;8.73;2.50;;;22.90;47.50;;;;;;5121143;28;20462;-57
2022/06/11 10:36:08;;;;;;;10.45;2.67;;;22.90;47.50;;;;;;5065272;28;20062;-57
2022/06/11 10:38:41;;;;;;;8.13;2.38;;;22.90;47.50;;;;;;5086110;28;20035;-52
2022/06/11 10:41:08;;;;;;;9.63;2.35;;;22.90;47.50;;;;;;5121280;28;20012;-53
2022/06/11 10:43:58;;;;;;;7.88;2.30;;;22.90;47.60;;;;;;5102879;28;20415;-57
2022/06/11 10:46:26;;;;;;;7.72;2.55;;;22.90;47.60;;;;;;5120833;28;20428;-53
2022/06/11 10:48:52;;;;;;;9.27;2.80;;;22.90;47.50;;;;;;5120350;28;20063;-55
2022/06/11 10:51:27;;;;;;;6.03;2.30;;;22.90;47.60;;;;;;5102799;28;20069;-54
2022/06/11 10:54:12;;;;;;;10.70;2.20;;;23.00;47.60;;;;;;5120388;28;20015;-56
2022/06/11 10:56:38;;;;;;;8.77;2.28;;;23.00;47.60;;;;;;5121334;28;20020;-51
2022/06/11 10:59:19;;;;;;;10.50;2.70;;;23.00;47.50;;;;;;5121600;28;20363;-54
2022/06/11 11:01:48;;;;;;;8.50;2.50;;;23.00;47.50;;;;;;5103641;28;20020;-52
2022/06/11 11:04:14;;;;;;;9.43;2.50;;;23.00;47.60;;;;;;5120647;28;20012;-55
2022/06/11 11:06:41;;;;;;;6.72;2.45;;;23.00;47.50;;;;;;5118867;28;20024;-56
2022/06/11 11:09:22;;;;;;;10.80;2.72;;;23.00;47.50;;;;;;5116927;28;20007;-54
2022/06/11 11:11:53;;;;;;;8.60;2.55;;;23.00;47.40;;;;;;5098907;28;20121;-54
2022/06/11 11:14:31;;;;;;;;;;;23.10;47.50;;;;;;5115948;28;20008;-54
2022/06/11 11:16:59;;;;;;;8.25;2.47;;;23.10;47.40;;;;;;5115730;28;19955;-55
2022/06/11 11:19:27;;;;;;;8.95;2.67;;;23.10;47.50;;;;;;5117835;28;20007;-56
2022/06/11 11:21:54;;;;;;;9.75;2.78;;;23.00;47.60;;;;;;5119734;28;20498;-54
2022/06/11 11:24:22;;;;;;;8.95;2.13;;;23.00;47.80;;;;;;5120337;28;20012;-57
2022/06/11 11:26:58;;;;;;;6.15;2.20;;;23.10;47.60;;;;;;5121586;28;20027;-54
2022/06/11 11:29:54;;;;;;;8.45;2.97;;;23.10;47.50;;;;;;5103814;28;20020;-54
2022/06/11 11:32:35;;;;;;;9.40;3.00;;;23.10;47.60;;;;;;5111578;28;20027;-52
2022/06/11 11:35:28;;;;;;;9.25;2.42;;;23.10;47.60;;;;;;5119721;28;20020;-52
2022/06/11 11:38:14;;;;;;;9.95;2.50;;;23.20;47.50;;;;;;5115762;28;20032;-55
2022/06/11 11:40:54;;;;;;;12.15;2.92;;;23.20;47.50;;;;;;5119528;28;20016;-55
2022/06/11 11:43:20;;;;;;;8.30;2.10;;;23.20;47.60;;;;;;5119406;28;20489;-52
2022/06/11 11:45:59;;;;;;;7.78;2.78;;;23.20;47.50;;;;;;5119404;28;20491;-53
2022/06/11 11:48:28;;;;;;;9.48;2.65;;;23.20;47.50;;;;;;5101751;28;20020;-53
2022/06/11 11:50:56;;;;;;;12.25;2.78;;;23.20;47.70;;;;;;5118688;28;20012;-53
2022/06/11 11:53:25;;;;;;;11.88;3.08;;;23.20;47.70;;;;;;5101168;28;20708;-55
2022/06/11 11:56:19;;;;;;;5.63;1.88;;;23.20;47.70;;;;;;5100689;28;20015;-54
2022/06/11 11:58:51;;;;;;;8.38;2.50;;;23.20;47.50;;;;;;5075674;28;20154;-51
2022/06/11 12:01:17;;;;;;;7.20;2.22;;;23.30;47.70;;;;;;5118322;28;20020;-52
2022/06/11 12:03:52;;;;;;;9.02;2.58;;;23.30;47.40;;;;;;5100288;28;20437;-50
2022/06/11 12:06:34;;;;;;;8.45;2.50;;;23.30;47.20;;;;;;5118338;28;20027;-52
2022/06/11 12:09:00;;;;;;;8.07;1.58;;;23.30;47.20;;;;;;5100551;28;20011;-52
2022/06/11 12:11:26;;;;;;;9.18;2.63;;;23.30;47.20;;;;;;5118228;28;20008;-47
2022/06/11 12:14:12;;;;;;;8.65;2.88;;;23.40;47.20;;;;;;5118219;28;20103;-50
2022/06/11 12:16:43;;;;;;;8.57;2.25;;;23.30;47.10;;;;;;5119102;28;20008;-49
2022/06/11 12:19:21;;;;;;;6.50;1.85;;;23.30;47.30;;;;;;5101014;28;20012;-51
2022/06/11 12:22:10;;;;;;;8.88;2.55;;;23.30;47.20;;;;;;5119207;28;20040;-55
2022/06/11 12:24:41;;;;;;;5.72;2.08;;;23.40;47.20;;;;;;5119895;28;20019;-55
2022/06/11 12:27:17;;;;;;;9.43;2.20;;;23.40;47.30;;;;;;5102317;28;20012;-54
2022/06/11 12:29:55;;;;;;;7.25;2.45;;;23.40;47.30;;;;;;5088116;28;20015;-56
2022/06/11 12:32:25;;;;;;;8.50;2.00;;;23.40;47.20;;;;;;5122388;28;20046;-54
2022/06/11 12:34:51;;;;;;;8.07;2.30;;;23.50;47.20;;;;;;5104466;28;20024;-52
2022/06/11 12:37:22;;;;;;;7.63;2.28;;;23.50;47.10;;;;;;5121953;28;20095;-50
2022/06/11 12:40:14;;;;;;;8.35;2.00;;;23.50;46.90;;;;;;5120048;28;20012;-49
2022/06/11 12:43:19;;;;;;;7.97;2.17;;;23.50;47.00;;;;;;5081487;28;20028;-53
2022/06/11 12:46:10;;;;;;;7.93;2.22;;;23.50;47.10;;;;;;5119978;28;20035;-51
2022/06/11 12:48:48;;;;;;;6.93;2.38;;;23.50;47.00;;;;;;5105198;28;20004;-49
2022/06/11 12:51:39;;;;;;;8.90;2.28;;;23.60;46.90;;;;;;5102069;28;20104;-54
2022/06/11 12:54:22;;;;;;;10.95;2.03;;;23.60;47.10;;;;;;5119986;28;20024;-55
2022/06/11 12:56:57;;;;;;;5.97;1.92;;;23.60;46.90;;;;;;5101787;28;20016;-52
2022/06/11 12:59:41;;;;;;;6.53;2.30;;;23.60;47.00;;;;;;5101734;28;20462;-51
2022/06/11 13:02:55;;;;;;;11.27;2.40;;;23.60;47.00;;;;;;5119940;28;20019;-53
2022/06/11 13:05:45;;;;;;;6.25;2.17;;;23.60;46.90;;;;;;5027439;28;20037;-51
2022/06/11 13:08:23;;;;;;;7.38;2.33;;;23.60;47.00;;;;;;5100325;28;20032;-55
2022/06/11 13:10:54;;;;;;;5.85;2.28;;;23.60;46.80;;;;;;5119244;28;20059;-52
2022/06/11 13:13:33;;;;;;;6.35;2.08;;;23.70;46.70;;;;;;5101366;28;20026;-54